sensor_id;sensor_type;location;lat;lon;timestamp;temperature;humidity
64705;DHT22;51131;52.298;13.686;2023-05-07T00:00:28;18.70;59.40
64705;DHT22;51131;52.298;13.686;2023-05-07T00:02:54;18.70;59.40
64705;DHT22;51131;52.298;13.686;2023-05-07T00:05:21;18.70;59.40
64705;DHT22;51131;52.298;13.686;2023-05-07T00:07:47;18.70;59.20
64705;DHT22;51131;52.298;13.686;2023-05-07T00:10:14;18.70;59.20
64705;DHT22;51131;52.298;13.686;2023-05-07T00:12:41;18.90;59.50
64705;DHT22;51131;52.298;13.686;2023-05-07T00:15:07;18.70;59.20
64705;DHT22;51131;52.298;13.686;2023-05-07T00:17:35;18.70;59.40
64705;DHT22;51131;52.298;13.686;2023-05-07T00:20:02;18.70;59.30
64705;DHT22;51131;52.298;13.686;2023-05-07T00:22:30;18.70;59.30
64705;DHT22;51131;52.298;13.686;2023-05-07T00:24:56;18.70;59.20
64705;DHT22;51131;52.298;13.686;2023-05-07T00:27:23;18.70;59.20
64705;DHT22;51131;52.298;13.686;2023-05-07T00:29:49;18.70;59.20
64705;DHT22;51131;52.298;13.686;2023-05-07T00:32:16;18.70;59.20
64705;DHT22;51131;52.298;13.686;2023-05-07T00:34:43;18.70;59.20
64705;DHT22;51131;52.298;13.686;2023-05-07T00:37:10;18.70;59.30
64705;DHT22;51131;52.298;13.686;2023-05-07T00:39:38;18.60;59.20
64705;DHT22;51131;52.298;13.686;2023-05-07T00:42:04;18.60;59.20
64705;DHT22;51131;52.298;13.686;2023-05-07T00:44:31;18.60;59.20
64705;DHT22;51131;52.298;13.686;2023-05-07T00:46:58;18.60;59.20
64705;DHT22;51131;52.298;13.686;2023-05-07T00:49:26;18.60;59.30
64705;DHT22;51131;52.298;13.686;2023-05-07T00:52:00;18.60;59.00
64705;DHT22;51131;52.298;13.686;2023-05-07T00:54:27;18.60;58.90
64705;DHT22;51131;52.298;13.686;2023-05-07T00:56:53;18.60;58.90
64705;DHT22;51131;52.298;13.686;2023-05-07T00:59:20;18.60;58.90
64705;DHT22;51131;52.298;13.686;2023-05-07T01:01:47;18.50;58.90
64705;DHT22;51131;52.298;13.686;2023-05-07T01:04:14;19.00;59.40
64705;DHT22;51131;52.298;13.686;2023-05-07T01:06:41;18.60;58.90
64705;DHT22;51131;52.298;13.686;2023-05-07T01:09:08;18.60;58.80
64705;DHT22;51131;52.298;13.686;2023-05-07T01:11:35;18.60;58.70
64705;DHT22;51131;52.298;13.686;2023-05-07T01:14:02;18.70;59.20
64705;DHT22;51131;52.298;13.686;2023-05-07T01:16:28;18.70;58.80
64705;DHT22;51131;52.298;13.686;2023-05-07T01:18:55;18.70;58.80
64705;DHT22;51131;52.298;13.686;2023-05-07T01:21:25;18.70;58.70
64705;DHT22;51131;52.298;13.686;2023-05-07T01:23:53;18.70;58.70
64705;DHT22;51131;52.298;13.686;2023-05-07T01:26:21;18.70;58.70
64705;DHT22;51131;52.298;13.686;2023-05-07T01:28:48;18.70;58.80
64705;DHT22;51131;52.298;13.686;2023-05-07T01:31:15;18.70;58.80
64705;DHT22;51131;52.298;13.686;2023-05-07T01:33:42;18.70;58.80
64705;DHT22;51131;52.298;13.686;2023-05-07T01:36:10;18.60;58.80
64705;DHT22;51131;52.298;13.686;2023-05-07T01:38:38;18.70;59.30
64705;DHT22;51131;52.298;13.686;2023-05-07T01:41:06;18.60;58.80
64705;DHT22;51131;52.298;13.686;2023-05-07T01:43:32;18.70;58.90
64705;DHT22;51131;52.298;13.686;2023-05-07T01:45:59;18.60;58.80
64705;DHT22;51131;52.298;13.686;2023-05-07T01:48:27;18.80;58.80
64705;DHT22;51131;52.298;13.686;2023-05-07T01:50:55;18.60;58.50
64705;DHT22;51131;52.298;13.686;2023-05-07T01:53:21;18.60;58.60
64705;DHT22;51131;52.298;13.686;2023-05-07T01:55:48;18.60;58.60
64705;DHT22;51131;52.298;13.686;2023-05-07T01:58:14;18.60;58.60
64705;DHT22;51131;52.298;13.686;2023-05-07T02:00:41;18.60;58.60
64705;DHT22;51131;52.298;13.686;2023-05-07T02:03:08;18.60;58.70
64705;DHT22;51131;52.298;13.686;2023-05-07T02:05:34;18.60;58.80
64705;DHT22;51131;52.298;13.686;2023-05-07T02:08:01;18.60;58.80
64705;DHT22;51131;52.298;13.686;2023-05-07T02:10:28;18.60;58.70
64705;DHT22;51131;52.298;13.686;2023-05-07T02:12:54;18.60;58.90
64705;DHT22;51131;52.298;13.686;2023-05-07T02:15:21;18.60;58.80
64705;DHT22;51131;52.298;13.686;2023-05-07T02:17:57;18.60;58.70
64705;DHT22;51131;52.298;13.686;2023-05-07T02:20:25;18.50;58.60
64705;DHT22;51131;52.298;13.686;2023-05-07T02:22:52;18.60;58.70
64705;DHT22;51131;52.298;13.686;2023-05-07T02:25:19;18.60;58.70
64705;DHT22;51131;52.298;13.686;2023-05-07T02:27:45;18.60;58.70
64705;DHT22;51131;52.298;13.686;2023-05-07T02:30:12;18.50;58.70
64705;DHT22;51131;52.298;13.686;2023-05-07T02:32:39;18.50;58.70
64705;DHT22;51131;52.298;13.686;2023-05-07T02:35:06;18.50;58.70
64705;DHT22;51131;52.298;13.686;2023-05-07T02:37:32;18.50;58.70
64705;DHT22;51131;52.298;13.686;2023-05-07T02:39:59;18.50;58.80
64705;DHT22;51131;52.298;13.686;2023-05-07T02:42:26;18.50;58.80
64705;DHT22;51131;52.298;13.686;2023-05-07T02:44:53;18.50;58.80
64705;DHT22;51131;52.298;13.686;2023-05-07T02:47:19;18.50;58.50
64705;DHT22;51131;52.298;13.686;2023-05-07T02:49:46;18.50;58.50
64705;DHT22;51131;52.298;13.686;2023-05-07T02:52:12;18.50;58.50
64705;DHT22;51131;52.298;13.686;2023-05-07T02:54:39;18.50;58.60
64705;DHT22;51131;52.298;13.686;2023-05-07T02:57:06;18.60;58.70
64705;DHT22;51131;52.298;13.686;2023-05-07T02:59:32;18.50;58.70
64705;DHT22;51131;52.298;13.686;2023-05-07T03:01:59;18.50;58.60
64705;DHT22;51131;52.298;13.686;2023-05-07T03:04:25;18.50;58.70
64705;DHT22;51131;52.298;13.686;2023-05-07T03:06:52;18.50;58.80
64705;DHT22;51131;52.298;13.686;2023-05-07T03:09:19;18.50;58.60
64705;DHT22;51131;52.298;13.686;2023-05-07T03:11:45;18.50;58.60
64705;DHT22;51131;52.298;13.686;2023-05-07T03:14:12;18.60;58.50
64705;DHT22;51131;52.298;13.686;2023-05-07T03:16:39;18.50;59.20
64705;DHT22;51131;52.298;13.686;2023-05-07T03:19:05;18.50;58.50
64705;DHT22;51131;52.298;13.686;2023-05-07T03:21:32;18.50;58.80
64705;DHT22;51131;52.298;13.686;2023-05-07T03:24:00;18.50;58.60
64705;DHT22;51131;52.298;13.686;2023-05-07T03:26:27;18.50;58.90
64705;DHT22;51131;52.298;13.686;2023-05-07T03:28:53;18.50;58.80
64705;DHT22;51131;52.298;13.686;2023-05-07T03:31:20;18.50;59.00
64705;DHT22;51131;52.298;13.686;2023-05-07T03:33:50;18.50;58.70
64705;DHT22;51131;52.298;13.686;2023-05-07T03:36:18;18.50;58.60
64705;DHT22;51131;52.298;13.686;2023-05-07T03:38:44;18.50;58.40
64705;DHT22;51131;52.298;13.686;2023-05-07T03:41:11;18.50;58.40
64705;DHT22;51131;52.298;13.686;2023-05-07T03:43:38;18.60;58.40
64705;DHT22;51131;52.298;13.686;2023-05-07T03:46:04;18.60;58.40
64705;DHT22;51131;52.298;13.686;2023-05-07T03:48:31;18.60;58.30
64705;DHT22;51131;52.298;13.686;2023-05-07T03:50:58;18.60;58.30
64705;DHT22;51131;52.298;13.686;2023-05-07T03:53:24;18.70;58.50
64705;DHT22;51131;52.298;13.686;2023-05-07T03:55:51;18.60;58.30
64705;DHT22;51131;52.298;13.686;2023-05-07T03:58:18;18.60;58.30
64705;DHT22;51131;52.298;13.686;2023-05-07T04:00:45;19.20;58.80
64705;DHT22;51131;52.298;13.686;2023-05-07T04:03:12;18.60;58.30
64705;DHT22;51131;52.298;13.686;2023-05-07T04:05:38;18.60;58.40
64705;DHT22;51131;52.298;13.686;2023-05-07T04:08:05;18.50;58.30
64705;DHT22;51131;52.298;13.686;2023-05-07T04:10:32;18.50;58.30
64705;DHT22;51131;52.298;13.686;2023-05-07T04:12:59;18.60;58.60
64705;DHT22;51131;52.298;13.686;2023-05-07T04:15:25;18.50;58.20
64705;DHT22;51131;52.298;13.686;2023-05-07T04:17:52;18.50;58.30
64705;DHT22;51131;52.298;13.686;2023-05-07T04:20:19;18.50;58.20
64705;DHT22;51131;52.298;13.686;2023-05-07T04:22:46;18.50;58.10
64705;DHT22;51131;52.298;13.686;2023-05-07T04:25:12;18.50;58.80
64705;DHT22;51131;52.298;13.686;2023-05-07T04:27:39;18.60;58.40
64705;DHT22;51131;52.298;13.686;2023-05-07T04:30:06;18.50;58.50
64705;DHT22;51131;52.298;13.686;2023-05-07T04:32:33;18.50;58.30
64705;DHT22;51131;52.298;13.686;2023-05-07T04:34:59;18.50;59.00
64705;DHT22;51131;52.298;13.686;2023-05-07T04:37:26;18.50;58.30
64705;DHT22;51131;52.298;13.686;2023-05-07T04:39:53;18.50;58.70
64705;DHT22;51131;52.298;13.686;2023-05-07T04:42:19;18.50;58.30
64705;DHT22;51131;52.298;13.686;2023-05-07T04:44:46;18.40;58.10
64705;DHT22;51131;52.298;13.686;2023-05-07T04:47:13;18.60;58.50
64705;DHT22;51131;52.298;13.686;2023-05-07T04:49:39;18.50;58.20
64705;DHT22;51131;52.298;13.686;2023-05-07T04:52:06;18.50;58.30
64705;DHT22;51131;52.298;13.686;2023-05-07T04:54:33;18.60;58.70
64705;DHT22;51131;52.298;13.686;2023-05-07T04:56:59;18.50;58.50
64705;DHT22;51131;52.298;13.686;2023-05-07T04:59:26;18.50;58.20
64705;DHT22;51131;52.298;13.686;2023-05-07T05:01:52;18.50;58.40
64705;DHT22;51131;52.298;13.686;2023-05-07T05:04:19;18.40;58.20
64705;DHT22;51131;52.298;13.686;2023-05-07T05:06:46;18.40;58.10
64705;DHT22;51131;52.298;13.686;2023-05-07T05:09:12;18.50;58.50
64705;DHT22;51131;52.298;13.686;2023-05-07T05:11:39;18.50;58.40
64705;DHT22;51131;52.298;13.686;2023-05-07T05:14:06;18.60;58.20
64705;DHT22;51131;52.298;13.686;2023-05-07T05:16:32;18.50;58.10
64705;DHT22;51131;52.298;13.686;2023-05-07T05:18:59;18.40;58.10
64705;DHT22;51131;52.298;13.686;2023-05-07T05:21:26;18.50;58.30
64705;DHT22;51131;52.298;13.686;2023-05-07T05:23:52;18.50;58.20
64705;DHT22;51131;52.298;13.686;2023-05-07T05:26:19;18.50;58.20
64705;DHT22;51131;52.298;13.686;2023-05-07T05:28:47;18.40;57.90
64705;DHT22;51131;52.298;13.686;2023-05-07T05:31:14;18.40;57.90
64705;DHT22;51131;52.298;13.686;2023-05-07T05:33:40;18.40;58.00
64705;DHT22;51131;52.298;13.686;2023-05-07T05:36:09;18.50;58.10
64705;DHT22;51131;52.298;13.686;2023-05-07T05:38:36;18.40;58.00
64705;DHT22;51131;52.298;13.686;2023-05-07T05:41:02;18.50;57.90
64705;DHT22;51131;52.298;13.686;2023-05-07T05:43:29;18.50;57.90
64705;DHT22;51131;52.298;13.686;2023-05-07T05:45:56;18.50;57.80
64705;DHT22;51131;52.298;13.686;2023-05-07T05:48:23;18.40;57.80
64705;DHT22;51131;52.298;13.686;2023-05-07T05:50:50;18.40;57.80
64705;DHT22;51131;52.298;13.686;2023-05-07T05:53:17;18.50;58.00
64705;DHT22;51131;52.298;13.686;2023-05-07T05:55:43;18.50;58.10
64705;DHT22;51131;52.298;13.686;2023-05-07T05:58:10;18.50;57.90
64705;DHT22;51131;52.298;13.686;2023-05-07T06:00:36;18.50;57.80
64705;DHT22;51131;52.298;13.686;2023-05-07T06:03:03;18.50;57.80
64705;DHT22;51131;52.298;13.686;2023-05-07T06:05:30;18.50;57.70
64705;DHT22;51131;52.298;13.686;2023-05-07T06:07:56;18.60;57.60
64705;DHT22;51131;52.298;13.686;2023-05-07T06:10:23;18.60;57.50
64705;DHT22;51131;52.298;13.686;2023-05-07T06:12:50;18.60;57.50
64705;DHT22;51131;52.298;13.686;2023-05-07T06:15:17;18.60;57.50
64705;DHT22;51131;52.298;13.686;2023-05-07T06:17:43;18.70;57.80
64705;DHT22;51131;52.298;13.686;2023-05-07T06:20:10;18.60;57.70
64705;DHT22;51131;52.298;13.686;2023-05-07T06:22:37;18.60;57.70
64705;DHT22;51131;52.298;13.686;2023-05-07T06:25:04;18.50;57.70
64705;DHT22;51131;52.298;13.686;2023-05-07T06:27:31;18.50;58.50
64705;DHT22;51131;52.298;13.686;2023-05-07T06:29:58;18.50;57.70
64705;DHT22;51131;52.298;13.686;2023-05-07T06:32:24;18.50;57.70
64705;DHT22;51131;52.298;13.686;2023-05-07T06:34:51;18.50;57.80
64705;DHT22;51131;52.298;13.686;2023-05-07T06:37:17;18.50;57.80
64705;DHT22;51131;52.298;13.686;2023-05-07T06:39:44;18.50;57.80
64705;DHT22;51131;52.298;13.686;2023-05-07T06:42:11;18.60;57.90
64705;DHT22;51131;52.298;13.686;2023-05-07T06:44:37;18.50;57.70
64705;DHT22;51131;52.298;13.686;2023-05-07T06:47:04;18.50;57.70
64705;DHT22;51131;52.298;13.686;2023-05-07T06:49:31;18.50;57.80
64705;DHT22;51131;52.298;13.686;2023-05-07T06:51:58;18.50;57.90
64705;DHT22;51131;52.298;13.686;2023-05-07T06:54:25;18.50;57.70
64705;DHT22;51131;52.298;13.686;2023-05-07T06:56:52;18.50;57.90
64705;DHT22;51131;52.298;13.686;2023-05-07T06:59:18;18.40;57.70
64705;DHT22;51131;52.298;13.686;2023-05-07T07:01:45;18.40;57.70
64705;DHT22;51131;52.298;13.686;2023-05-07T07:04:12;18.40;57.80
64705;DHT22;51131;52.298;13.686;2023-05-07T07:06:39;18.40;57.70
64705;DHT22;51131;52.298;13.686;2023-05-07T07:09:05;18.40;57.90
64705;DHT22;51131;52.298;13.686;2023-05-07T07:11:32;18.50;57.70
64705;DHT22;51131;52.298;13.686;2023-05-07T07:13:59;18.50;57.70
64705;DHT22;51131;52.298;13.686;2023-05-07T07:16:25;18.50;57.70
64705;DHT22;51131;52.298;13.686;2023-05-07T07:18:52;18.40;57.70
64705;DHT22;51131;52.298;13.686;2023-05-07T07:21:18;18.40;57.70
64705;DHT22;51131;52.298;13.686;2023-05-07T07:23:45;18.40;57.80
64705;DHT22;51131;52.298;13.686;2023-05-07T07:26:12;18.50;58.00
64705;DHT22;51131;52.298;13.686;2023-05-07T07:28:42;18.50;57.90
64705;DHT22;51131;52.298;13.686;2023-05-07T07:31:11;18.40;57.90
64705;DHT22;51131;52.298;13.686;2023-05-07T07:33:38;18.50;58.00
64705;DHT22;51131;52.298;13.686;2023-05-07T07:36:05;18.40;57.70
64705;DHT22;51131;52.298;13.686;2023-05-07T07:38:32;18.40;57.90
64705;DHT22;51131;52.298;13.686;2023-05-07T07:40:59;18.50;58.00
64705;DHT22;51131;52.298;13.686;2023-05-07T07:43:26;18.50;57.90
64705;DHT22;51131;52.298;13.686;2023-05-07T07:45:53;18.60;58.00
64705;DHT22;51131;52.298;13.686;2023-05-07T07:48:19;18.50;57.90
64705;DHT22;51131;52.298;13.686;2023-05-07T07:50:48;18.60;58.10
64705;DHT22;51131;52.298;13.686;2023-05-07T07:53:15;18.70;58.00
64705;DHT22;51131;52.298;13.686;2023-05-07T07:55:41;18.80;57.90
64705;DHT22;51131;52.298;13.686;2023-05-07T07:58:08;18.80;57.80
64705;DHT22;51131;52.298;13.686;2023-05-07T08:00:35;18.80;57.60
64705;DHT22;51131;52.298;13.686;2023-05-07T08:03:02;18.90;57.50
64705;DHT22;51131;52.298;13.686;2023-05-07T08:05:29;18.90;57.30
64705;DHT22;51131;52.298;13.686;2023-05-07T08:07:56;18.90;57.20
64705;DHT22;51131;52.298;13.686;2023-05-07T08:10:23;18.90;57.30
64705;DHT22;51131;52.298;13.686;2023-05-07T08:12:50;18.90;57.40
64705;DHT22;51131;52.298;13.686;2023-05-07T08:15:17;18.90;57.50
64705;DHT22;51131;52.298;13.686;2023-05-07T08:17:43;18.90;57.70
64705;DHT22;51131;52.298;13.686;2023-05-07T08:20:10;18.80;57.30
64705;DHT22;51131;52.298;13.686;2023-05-07T08:22:37;18.80;57.30
64705;DHT22;51131;52.298;13.686;2023-05-07T08:25:04;18.80;57.40
64705;DHT22;51131;52.298;13.686;2023-05-07T08:27:31;18.80;57.40
64705;DHT22;51131;52.298;13.686;2023-05-07T08:29:57;18.80;57.70
64705;DHT22;51131;52.298;13.686;2023-05-07T08:32:24;18.80;57.90
64705;DHT22;51131;52.298;13.686;2023-05-07T08:34:50;18.80;58.00
64705;DHT22;51131;52.298;13.686;2023-05-07T08:37:17;18.80;58.20
64705;DHT22;51131;52.298;13.686;2023-05-07T08:39:44;18.80;57.90
64705;DHT22;51131;52.298;13.686;2023-05-07T08:42:11;18.80;58.20
64705;DHT22;51131;52.298;13.686;2023-05-07T08:44:39;18.80;58.00
64705;DHT22;51131;52.298;13.686;2023-05-07T08:47:06;18.70;58.00
64705;DHT22;51131;52.298;13.686;2023-05-07T08:49:33;18.70;58.10
64705;DHT22;51131;52.298;13.686;2023-05-07T08:52:00;18.70;58.00
64705;DHT22;51131;52.298;13.686;2023-05-07T08:54:27;18.70;58.00
64705;DHT22;51131;52.298;13.686;2023-05-07T08:56:54;18.70;57.90
64705;DHT22;51131;52.298;13.686;2023-05-07T08:59:20;18.70;57.60
64705;DHT22;51131;52.298;13.686;2023-05-07T09:01:47;18.70;58.40
64705;DHT22;51131;52.298;13.686;2023-05-07T09:04:14;18.70;58.20
64705;DHT22;51131;52.298;13.686;2023-05-07T09:06:41;18.60;58.50
64705;DHT22;51131;52.298;13.686;2023-05-07T09:09:08;18.60;58.10
64705;DHT22;51131;52.298;13.686;2023-05-07T09:11:35;18.60;57.70
64705;DHT22;51131;52.298;13.686;2023-05-07T09:14:01;18.60;58.00
64705;DHT22;51131;52.298;13.686;2023-05-07T09:16:29;18.60;58.00
64705;DHT22;51131;52.298;13.686;2023-05-07T09:18:57;18.60;58.10
64705;DHT22;51131;52.298;13.686;2023-05-07T09:21:24;18.60;58.00
64705;DHT22;51131;52.298;13.686;2023-05-07T09:23:51;18.60;57.50
64705;DHT22;51131;52.298;13.686;2023-05-07T09:26:18;18.60;57.20
64705;DHT22;51131;52.298;13.686;2023-05-07T09:28:44;18.50;57.50
64705;DHT22;51131;52.298;13.686;2023-05-07T09:31:12;18.60;57.30
64705;DHT22;51131;52.298;13.686;2023-05-07T09:33:39;18.70;57.80
64705;DHT22;51131;52.298;13.686;2023-05-07T09:36:07;18.60;58.40
64705;DHT22;51131;52.298;13.686;2023-05-07T09:38:34;18.60;57.90
64705;DHT22;51131;52.298;13.686;2023-05-07T09:43:34;18.60;56.40
64705;DHT22;51131;52.298;13.686;2023-05-07T09:46:25;18.70;56.90
64705;DHT22;51131;52.298;13.686;2023-05-07T09:48:50;18.70;57.20
64705;DHT22;51131;52.298;13.686;2023-05-07T09:51:23;18.60;57.60
64705;DHT22;51131;52.298;13.686;2023-05-07T09:53:53;18.70;58.30
64705;DHT22;51131;52.298;13.686;2023-05-07T09:56:20;18.60;58.10
64705;DHT22;51131;52.298;13.686;2023-05-07T09:58:47;18.70;58.20
64705;DHT22;51131;52.298;13.686;2023-05-07T10:01:15;18.80;58.10
64705;DHT22;51131;52.298;13.686;2023-05-07T10:03:43;18.60;57.70
64705;DHT22;51131;52.298;13.686;2023-05-07T10:06:10;18.80;58.10
64705;DHT22;51131;52.298;13.686;2023-05-07T10:08:37;18.70;58.10
64705;DHT22;51131;52.298;13.686;2023-05-07T10:11:04;18.60;58.10
64705;DHT22;51131;52.298;13.686;2023-05-07T10:13:32;18.60;58.10
64705;DHT22;51131;52.298;13.686;2023-05-07T10:16:01;18.60;58.00
64705;DHT22;51131;52.298;13.686;2023-05-07T10:18:30;18.70;57.90
64705;DHT22;51131;52.298;13.686;2023-05-07T10:21:02;18.70;57.30
64705;DHT22;51131;52.298;13.686;2023-05-07T10:23:29;18.80;57.00
64705;DHT22;51131;52.298;13.686;2023-05-07T10:25:57;18.80;57.00
64705;DHT22;51131;52.298;13.686;2023-05-07T10:28:26;18.90;56.70
64705;DHT22;51131;52.298;13.686;2023-05-07T10:31:03;18.90;56.70
64705;DHT22;51131;52.298;13.686;2023-05-07T10:33:34;18.90;56.70
64705;DHT22;51131;52.298;13.686;2023-05-07T10:36:01;18.90;56.70
64705;DHT22;51131;52.298;13.686;2023-05-07T10:38:29;18.90;56.90
64705;DHT22;51131;52.298;13.686;2023-05-07T10:40:56;18.90;57.30
64705;DHT22;51131;52.298;13.686;2023-05-07T10:43:22;18.90;57.30
64705;DHT22;51131;52.298;13.686;2023-05-07T10:48:34;18.90;57.10
64705;DHT22;51131;52.298;13.686;2023-05-07T10:51:21;19.00;57.30
64705;DHT22;51131;52.298;13.686;2023-05-07T10:53:48;18.80;57.20
64705;DHT22;51131;52.298;13.686;2023-05-07T10:56:35;18.80;57.30
64705;DHT22;51131;52.298;13.686;2023-05-07T11:01:58;18.80;57.50
64705;DHT22;51131;52.298;13.686;2023-05-07T11:04:25;18.80;57.70
64705;DHT22;51131;52.298;13.686;2023-05-07T11:09:54;18.80;57.20
64705;DHT22;51131;52.298;13.686;2023-05-07T11:15:08;18.80;57.60
64705;DHT22;51131;52.298;13.686;2023-05-07T11:17:58;18.70;58.00
64705;DHT22;51131;52.298;13.686;2023-05-07T11:26:03;18.70;57.60
64705;DHT22;51131;52.298;13.686;2023-05-07T11:28:30;18.70;57.60
64705;DHT22;51131;52.298;13.686;2023-05-07T11:30:57;18.70;57.60
64705;DHT22;51131;52.298;13.686;2023-05-07T11:33:24;18.70;57.70
64705;DHT22;51131;52.298;13.686;2023-05-07T11:35:53;18.70;57.40
64705;DHT22;51131;52.298;13.686;2023-05-07T11:38:20;18.70;57.40
64705;DHT22;51131;52.298;13.686;2023-05-07T11:40:54;18.70;57.10
64705;DHT22;51131;52.298;13.686;2023-05-07T11:43:21;18.70;57.40
64705;DHT22;51131;52.298;13.686;2023-05-07T11:45:48;18.80;57.10
64705;DHT22;51131;52.298;13.686;2023-05-07T11:48:15;18.70;57.00
64705;DHT22;51131;52.298;13.686;2023-05-07T11:50:52;18.70;57.00
64705;DHT22;51131;52.298;13.686;2023-05-07T11:53:24;18.70;57.40
64705;DHT22;51131;52.298;13.686;2023-05-07T11:55:57;18.70;57.10
64705;DHT22;51131;52.298;13.686;2023-05-07T11:58:24;18.70;56.80
64705;DHT22;51131;52.298;13.686;2023-05-07T12:00:52;18.70;56.90
64705;DHT22;51131;52.298;13.686;2023-05-07T12:03:19;18.80;57.20
64705;DHT22;51131;52.298;13.686;2023-05-07T12:05:47;18.70;57.00
64705;DHT22;51131;52.298;13.686;2023-05-07T12:08:14;18.70;57.10
64705;DHT22;51131;52.298;13.686;2023-05-07T12:10:42;18.70;57.20
64705;DHT22;51131;52.298;13.686;2023-05-07T12:13:15;18.70;56.60
64705;DHT22;51131;52.298;13.686;2023-05-07T12:15:42;18.70;57.10
64705;DHT22;51131;52.298;13.686;2023-05-07T12:18:10;18.70;56.80
64705;DHT22;51131;52.298;13.686;2023-05-07T12:20:37;18.70;57.10
64705;DHT22;51131;52.298;13.686;2023-05-07T12:23:04;18.70;57.40
64705;DHT22;51131;52.298;13.686;2023-05-07T12:25:37;18.70;57.30
64705;DHT22;51131;52.298;13.686;2023-05-07T12:28:04;18.70;56.80
64705;DHT22;51131;52.298;13.686;2023-05-07T12:30:32;18.70;57.50
64705;DHT22;51131;52.298;13.686;2023-05-07T12:32:59;18.80;57.40
64705;DHT22;51131;52.298;13.686;2023-05-07T12:35:26;18.70;56.70
64705;DHT22;51131;52.298;13.686;2023-05-07T12:37:56;18.80;56.00
64705;DHT22;51131;52.298;13.686;2023-05-07T12:43:04;18.80;56.30
64705;DHT22;51131;52.298;13.686;2023-05-07T12:45:30;18.90;55.90
64705;DHT22;51131;52.298;13.686;2023-05-07T12:48:00;18.90;55.90
64705;DHT22;51131;52.298;13.686;2023-05-07T12:50:30;18.80;56.40
64705;DHT22;51131;52.298;13.686;2023-05-07T12:52:57;18.80;55.90
64705;DHT22;51131;52.298;13.686;2023-05-07T12:55:23;18.80;56.60
64705;DHT22;51131;52.298;13.686;2023-05-07T12:57:50;18.80;56.60
64705;DHT22;51131;52.298;13.686;2023-05-07T13:00:17;18.80;55.70
64705;DHT22;51131;52.298;13.686;2023-05-07T13:02:44;18.80;55.50
64705;DHT22;51131;52.298;13.686;2023-05-07T13:05:11;19.10;56.70
64705;DHT22;51131;52.298;13.686;2023-05-07T13:07:39;18.80;55.90
64705;DHT22;51131;52.298;13.686;2023-05-07T13:10:07;18.80;57.10
64705;DHT22;51131;52.298;13.686;2023-05-07T13:12:34;18.80;56.90
64705;DHT22;51131;52.298;13.686;2023-05-07T13:15:01;18.80;55.80
64705;DHT22;51131;52.298;13.686;2023-05-07T13:17:27;18.80;55.60
64705;DHT22;51131;52.298;13.686;2023-05-07T13:19:54;18.80;55.70
64705;DHT22;51131;52.298;13.686;2023-05-07T13:22:21;18.80;55.70
64705;DHT22;51131;52.298;13.686;2023-05-07T13:24:47;18.80;55.30
64705;DHT22;51131;52.298;13.686;2023-05-07T13:27:14;18.80;55.90
64705;DHT22;51131;52.298;13.686;2023-05-07T13:29:41;18.80;56.60
64705;DHT22;51131;52.298;13.686;2023-05-07T13:32:08;18.80;56.40
64705;DHT22;51131;52.298;13.686;2023-05-07T13:34:35;18.80;56.00
64705;DHT22;51131;52.298;13.686;2023-05-07T13:37:01;18.80;55.80
64705;DHT22;51131;52.298;13.686;2023-05-07T13:39:28;18.80;56.80
64705;DHT22;51131;52.298;13.686;2023-05-07T13:41:54;18.80;56.40
64705;DHT22;51131;52.298;13.686;2023-05-07T13:44:21;18.80;56.30
64705;DHT22;51131;52.298;13.686;2023-05-07T13:46:48;19.10;57.10
64705;DHT22;51131;52.298;13.686;2023-05-07T13:49:14;18.80;56.70
64705;DHT22;51131;52.298;13.686;2023-05-07T13:51:41;18.80;55.90
64705;DHT22;51131;52.298;13.686;2023-05-07T13:54:07;18.70;56.60
64705;DHT22;51131;52.298;13.686;2023-05-07T13:56:34;18.80;57.20
64705;DHT22;51131;52.298;13.686;2023-05-07T13:59:01;18.80;56.80
64705;DHT22;51131;52.298;13.686;2023-05-07T14:01:28;18.70;56.30
64705;DHT22;51131;52.298;13.686;2023-05-07T14:03:55;18.70;56.20
64705;DHT22;51131;52.298;13.686;2023-05-07T14:06:22;18.70;56.60
64705;DHT22;51131;52.298;13.686;2023-05-07T14:08:49;18.80;56.30
64705;DHT22;51131;52.298;13.686;2023-05-07T14:11:15;18.70;56.80
64705;DHT22;51131;52.298;13.686;2023-05-07T14:13:42;19.00;56.20
64705;DHT22;51131;52.298;13.686;2023-05-07T14:16:09;18.80;57.60
64705;DHT22;51131;52.298;13.686;2023-05-07T14:18:35;18.80;56.80
64705;DHT22;51131;52.298;13.686;2023-05-07T14:21:04;19.00;57.30
64705;DHT22;51131;52.298;13.686;2023-05-07T14:23:32;18.80;57.50
64705;DHT22;51131;52.298;13.686;2023-05-07T14:25:59;18.70;57.20
64705;DHT22;51131;52.298;13.686;2023-05-07T14:28:25;18.70;57.10
64705;DHT22;51131;52.298;13.686;2023-05-07T14:30:52;18.70;57.20
64705;DHT22;51131;52.298;13.686;2023-05-07T14:33:19;18.80;56.00
64705;DHT22;51131;52.298;13.686;2023-05-07T14:35:45;18.70;57.40
64705;DHT22;51131;52.298;13.686;2023-05-07T14:38:15;18.70;57.20
64705;DHT22;51131;52.298;13.686;2023-05-07T14:40:42;18.70;57.10
64705;DHT22;51131;52.298;13.686;2023-05-07T14:43:08;18.70;56.00
64705;DHT22;51131;52.298;13.686;2023-05-07T14:45:35;18.70;56.80
64705;DHT22;51131;52.298;13.686;2023-05-07T14:48:02;18.70;56.60
64705;DHT22;51131;52.298;13.686;2023-05-07T14:50:28;18.60;57.30
64705;DHT22;51131;52.298;13.686;2023-05-07T14:52:55;18.80;56.20
64705;DHT22;51131;52.298;13.686;2023-05-07T14:55:22;18.80;55.10
64705;DHT22;51131;52.298;13.686;2023-05-07T14:57:48;18.80;56.00
64705;DHT22;51131;52.298;13.686;2023-05-07T15:00:15;18.80;55.20
64705;DHT22;51131;52.298;13.686;2023-05-07T15:02:42;18.90;55.70
64705;DHT22;51131;52.298;13.686;2023-05-07T15:05:09;19.10;55.90
64705;DHT22;51131;52.298;13.686;2023-05-07T15:07:35;19.20;56.60
64705;DHT22;51131;52.298;13.686;2023-05-07T15:10:02;18.90;54.70
64705;DHT22;51131;52.298;13.686;2023-05-07T15:12:29;18.90;55.20
64705;DHT22;51131;52.298;13.686;2023-05-07T15:14:56;18.90;54.60
64705;DHT22;51131;52.298;13.686;2023-05-07T15:17:22;19.00;55.40
64705;DHT22;51131;52.298;13.686;2023-05-07T15:19:49;18.90;54.70
64705;DHT22;51131;52.298;13.686;2023-05-07T15:22:19;19.00;55.10
64705;DHT22;51131;52.298;13.686;2023-05-07T15:24:47;18.90;55.60
64705;DHT22;51131;52.298;13.686;2023-05-07T15:27:14;18.90;55.70
64705;DHT22;51131;52.298;13.686;2023-05-07T15:29:41;18.90;55.80
64705;DHT22;51131;52.298;13.686;2023-05-07T15:32:09;18.90;55.50
64705;DHT22;51131;52.298;13.686;2023-05-07T15:34:36;18.90;55.70
64705;DHT22;51131;52.298;13.686;2023-05-07T15:37:03;18.90;55.90